Drummond Island, MI

4:05 AM EDT on October 31, 2014 (GMT -0400)
Mackinac Island | Change Station
CLOSE
Current Station
Airport
Location: Mackinac Island,
Elevation: 741 ft
Nearby Weather Stations

Elev 741 ft 45.87 °N, 84.64 °W | Updated 6 minutes ago

Overcast
Overcast
36 °F
Feels Like 26 °F
N
17
Wind Variable Wind from NNE
Gusts 25 mph

Today
High -- | Low -- °F
--% Chance of Precip.
Yesterday
High -- | Low -- °F
Precip. -- in
8:13 AM 6:22 PM
First Quarter, 52% visible
Pressure 29.92 in
Visibility 10.0 miles
Clouds Overcast 700 ft
Windchill 26 °F
Dew Point 36 °F
Humidity 99%
Rainfall 0.00 in
Snow Depth Not available.
UV 0 out of 12
Pollen .10 out of 12
Air Quality Not available.
Flu Activity Not available.
METAR KMCD 310759Z AUTO 02015G22KT 10SM UP OVC007 02/02 A2992 RMK AO2 T00220020

More Conditions Fewer Conditions

Pressure 29.92 in
Visibility 10.0 miles
Clouds Overcast 700 ft
Windchill 26 °F
Dew Point 36 °F
Humidity 99%
Rainfall 0.00 in
Snow Depth Not available.
UV 0 out of 12
Pollen .10 out of 12
Air Quality Not available.
Flu Activity Not available.
METAR KMCD 310759Z AUTO 02015G22KT 10SM UP OVC007 02/02 A2992 RMK AO2 T00220020

More Conditions Fewer Conditions

Nowcast | as of 4:00 am EDT on October 31, 2014

At 5 am...snow. Temperature 34. North winds 20 mph. At 7 am...snow. Temperature 32. North winds 20 mph. At 9 am...snow. Temperature 31. North winds 16 mph. At 11 am...cloudy. Chance of snow. Temperature 32. North winds 16 mph with gusts to 35 mph.

×

10-Day Weather Forecast

Almanac

Astronomy

Oct. 31, 2014 Rise Set
Actual Time
Civil Twilight
Nautical Twilight
Astronomical Twilight
Moon
Length of Visible Light
Length of Day
Tomorrow will be .
, % of the Moon is Illuminated

Today's Extremes

State Highs State Lows

Community

WunderPhotos

Upload Photos

1,766,573 photos uploaded!

WunderBlogs® & News

Nearby

Air Quality

  Air Quality AQ Index Pollutant
Not available.

Snow Depth

Station Depth Elevation

Earthquake Activity

City Distance Mag. Time & Date
Minimum magnitude displayed is 2.5.

Coastal Water Temperatures

Place Temperature

Nearby Weather Stations